Arapahoe, Colorado
Current Conditions -  °F | °C
As of 1:53 AM on Friday 28 Nov 2014 (Local Time) from KITR Reporting Station
Clear Clear  
Wind Chill: 26°   Ceiling: Unl
Heat Index: 34°   Visibility: 10mi
Dew Point: 20°   Wind: 10mph
Humidity: 56%   Direction: 270°W
Pressure: 30.02"   Gusts: NA
Location:  38.85°N, 102.18°W
Report Text: KITR 280853Z AUTO 27009KT 10SM CLR 01/M07 A3002 RMK AO2 SLP150 T00111067 56009
Loading
Personal Weather Stations






























Interactive Weather Map New forecast layout! Learn more

10-Day Weather Forecast

Advertisements
Track Severe Weather on mobile